createdAt,value
2022-08-07T00:02:41.181Z,101383.94
2022-08-07T00:05:03.991Z,101379.44
2022-08-07T00:07:39.251Z,101372.34
2022-08-07T00:10:26.193Z,101378.53
2022-08-07T00:13:00.383Z,101387.47
2022-08-07T00:15:38.633Z,101386.22
2022-08-07T00:18:23.848Z,101385.03
2022-08-07T00:20:52.221Z,101383.38
2022-08-07T00:23:21.401Z,101373.34
2022-08-07T00:25:52.485Z,101381.31
2022-08-07T00:28:33.234Z,101385.16
2022-08-07T00:31:01.857Z,101382.78
2022-08-07T00:33:35.572Z,101388.44
2022-08-07T00:36:04.736Z,101380.19
2022-08-07T00:38:33.384Z,101376.53
2022-08-07T00:41:01.247Z,101380.97
2022-08-07T00:44:01.959Z,101374.72
2022-08-07T00:46:16.499Z,101374.50
2022-08-07T00:48:45.285Z,101375.75
2022-08-07T00:51:17.911Z,101375.06
2022-08-07T00:53:50.128Z,101383.72
2022-08-07T00:56:19.682Z,101377.56
2022-08-07T00:58:49.811Z,101378.22
2022-08-07T01:01:20.151Z,101374.97
2022-08-07T01:03:57.351Z,101377.88
2022-08-07T01:06:28.422Z,101375.56
2022-08-07T01:08:58.659Z,101377.56
2022-08-07T01:12:27.804Z,101376.00
2022-08-07T01:14:16.825Z,101377.47
2022-08-07T01:16:47.324Z,101378.88
2022-08-07T01:19:19.733Z,101371.97
2022-08-07T01:21:53.247Z,101372.78
2022-08-07T01:24:22.304Z,101374.53
2022-08-07T01:26:51.996Z,101380.50
2022-08-07T01:29:20.304Z,101379.72
2022-08-07T01:31:50.110Z,101376.16
2022-08-07T01:34:18.921Z,101382.72
2022-08-07T01:36:52.813Z,101383.94
2022-08-07T01:39:39.644Z,101386.56
2022-08-07T01:42:37.883Z,101387.66
2022-08-07T01:45:03.263Z,101377.28
2022-08-07T01:48:18.364Z,101380.44
2022-08-07T01:50:32.038Z,65387.91
2022-08-07T01:54:09.385Z,65387.91
2022-08-07T01:56:24.972Z,65387.91
2022-08-07T01:59:37.163Z,65387.91
2022-08-07T02:03:11.285Z,101380.44
2022-08-07T02:05:43.438Z,101380.44
2022-08-07T02:09:51.544Z,65387.91
2022-08-07T02:13:01.297Z,65387.91
2022-08-07T02:16:28.727Z,65387.91
2022-08-07T02:20:07.359Z,78957.47
2022-08-07T02:22:41.344Z,101380.44
2022-08-07T02:25:17.474Z,101350.44
2022-08-07T02:27:52.258Z,101357.13
2022-08-07T02:30:20.908Z,101366.34
2022-08-07T02:33:00.581Z,65387.91
2022-08-07T02:36:30.097Z,101366.34
2022-08-07T02:39:09.468Z,101366.34
2022-08-07T02:42:43.722Z,65387.91
2022-08-07T02:45:57.606Z,101348.78
2022-08-07T02:48:03.628Z,101358.00
2022-08-07T02:50:33.866Z,101353.44
2022-08-07T02:53:07.578Z,101365.97
2022-08-07T02:56:03.179Z,101362.84
2022-08-07T02:58:33.358Z,101358.75
2022-08-07T03:01:04.195Z,101369.16
2022-08-07T03:03:42.264Z,101372.50
2022-08-07T03:06:33.056Z,101372.50
2022-08-07T03:09:02.764Z,101364.97
2022-08-07T03:11:32.659Z,101369.38
2022-08-07T03:14:06.530Z,101374.41
2022-08-07T03:16:36.691Z,101379.09
2022-08-07T03:19:06.623Z,101380.91
2022-08-07T03:21:37.092Z,101379.56
2022-08-07T03:24:20.299Z,101379.56
2022-08-07T03:27:59.161Z,65387.91
2022-08-07T03:30:28.188Z,101377.75
2022-08-07T03:33:02.536Z,79037.16
2022-08-07T03:35:43.532Z,101377.75
2022-08-07T03:38:29.570Z,101377.75
2022-08-07T03:40:57.967Z,101365.88
2022-08-07T03:43:36.092Z,101365.88
2022-08-07T03:46:33.529Z,101365.88
2022-08-07T03:50:01.511Z,65387.91
2022-08-07T03:53:50.116Z,65387.91
2022-08-07T03:58:32.706Z,65387.91
2022-08-07T04:01:07.514Z,65387.91
2022-08-07T04:04:38.097Z,65387.91
2022-08-07T04:08:04.632Z,65387.91
2022-08-07T04:12:26.331Z,65387.91
2022-08-07T04:15:18.325Z,65387.91
2022-08-07T04:18:59.423Z,65387.91
2022-08-07T04:22:30.047Z,65387.91
2022-08-07T04:25:08.864Z,101365.88
2022-08-07T04:28:38.793Z,65387.91
2022-08-07T04:31:38.359Z,101365.88
2022-08-07T04:34:53.692Z,65387.91
2022-08-07T04:38:07.813Z,65387.91
2022-08-07T04:41:36.887Z,65387.91
2022-08-07T04:45:08.071Z,65387.91
2022-08-07T04:48:44.740Z,65387.91
2022-08-07T04:52:19.128Z,65387.91
2022-08-07T04:58:15.331Z,65387.91
2022-08-07T05:00:12.593Z,65387.91
2022-08-07T05:04:07.375Z,65387.91
2022-08-07T05:07:48.181Z,65387.91
2022-08-07T05:11:24.262Z,65387.91
2022-08-07T05:15:04.531Z,65387.91
2022-08-07T05:18:35.087Z,65387.91
2022-08-07T05:22:04.591Z,65387.91
2022-08-07T05:25:54.436Z,65387.91
2022-08-07T05:29:22.113Z,65387.91
2022-08-07T05:32:49.118Z,65387.91
2022-08-07T05:36:22.599Z,65387.91
2022-08-07T05:40:16.813Z,65387.91
2022-08-07T05:43:49.749Z,65387.91
2022-08-07T05:47:21.328Z,65387.91
2022-08-07T05:51:04.835Z,65387.91
2022-08-07T05:54:44.289Z,65387.91
2022-08-07T05:57:23.174Z,65387.91
2022-08-07T06:00:56.226Z,65387.91
2022-08-07T06:04:30.007Z,65387.91
2022-08-07T06:08:13.438Z,65387.91
2022-08-07T06:11:43.661Z,65387.91
2022-08-07T06:15:15.923Z,65387.91
2022-08-07T06:18:43.310Z,65387.91
2022-08-07T06:22:23.848Z,65387.91
2022-08-07T06:25:54.873Z,65387.91
2022-08-07T06:29:27.056Z,65387.91
2022-08-07T06:32:55.895Z,65387.91
2022-08-07T06:36:35.397Z,65387.91
2022-08-07T06:40:17.506Z,65387.91
2022-08-07T06:44:01.808Z,65387.91
2022-08-07T06:47:48.091Z,65387.91
2022-08-07T06:51:33.069Z,65387.91
2022-08-07T06:55:34.391Z,65387.91
2022-08-07T07:00:13.186Z,65387.91
2022-08-07T07:02:53.585Z,65387.91
2022-08-07T07:06:23.980Z,65387.91
2022-08-07T07:09:52.892Z,65387.91
2022-08-07T07:13:55.389Z,65387.91
2022-08-07T07:17:21.528Z,65387.91
2022-08-07T07:21:03.930Z,65387.91
2022-08-07T07:24:30.448Z,65387.91
2022-08-07T07:28:02.974Z,65387.91
2022-08-07T07:31:39.864Z,65387.91
2022-08-07T07:35:11.405Z,65387.91
2022-08-07T07:38:40.684Z,65387.91
2022-08-07T07:42:14.005Z,65387.91
2022-08-07T07:46:53.573Z,65387.91
2022-08-07T07:50:34.370Z,65387.91
2022-08-07T07:53:25.522Z,65387.91
2022-08-07T07:56:53.212Z,65387.91
2022-08-07T08:00:29.735Z,65387.91
2022-08-07T08:04:09.856Z,65387.91
2022-08-07T08:06:56.873Z,101365.88
2022-08-07T08:10:37.654Z,65387.91
2022-08-07T08:14:05.893Z,65387.91
2022-08-07T08:17:57.896Z,65387.91
2022-08-07T08:21:59.136Z,65387.91
2022-08-07T08:25:49.206Z,65387.91
2022-08-07T08:29:19.206Z,65387.91
2022-08-07T08:32:49.185Z,65387.91
2022-08-07T08:36:25.636Z,65387.91
2022-08-07T08:39:58.720Z,65387.91
2022-08-07T08:43:42.811Z,65387.91
2022-08-07T08:47:26.704Z,65387.91
2022-08-07T08:51:03.361Z,65387.91
2022-08-07T08:54:46.116Z,65387.91
2022-08-07T08:58:20.285Z,65387.91
2022-08-07T09:01:58.493Z,65387.91
2022-08-07T09:05:37.151Z,65387.91
2022-08-07T09:09:20.952Z,65387.91
2022-08-07T09:13:06.898Z,65387.91
2022-08-07T09:16:45.541Z,65387.91
2022-08-07T09:20:35.265Z,65387.91
2022-08-07T09:24:31.665Z,65387.91
2022-08-07T09:28:06.175Z,65387.91
2022-08-07T09:32:03.710Z,65387.91
2022-08-07T09:34:56.018Z,101254.25
2022-08-07T09:37:48.268Z,101257.47
2022-08-07T09:40:30.935Z,101255.47
2022-08-07T09:43:14.575Z,101251.63
2022-08-07T09:47:50.787Z,101252.91
2022-08-07T09:50:00.452Z,101255.78
2022-08-07T09:52:16.701Z,101248.63
2022-08-07T09:54:42.011Z,101254.19
2022-08-07T09:57:46.885Z,101241.69
2022-08-07T10:00:18.837Z,101240.66
2022-08-07T10:04:04.974Z,101235.91
2022-08-07T10:06:25.661Z,101227.91
2022-08-07T10:09:08.973Z,101222.06
2022-08-07T10:12:01.722Z,101222.69
2022-08-07T10:15:04.851Z,101220.31
2022-08-07T10:18:01.178Z,101217.09
2022-08-07T10:20:38.379Z,101217.59
2022-08-07T10:24:05.046Z,101215.91
2022-08-07T10:26:38.041Z,101209.16
2022-08-07T10:29:19.056Z,101207.44
2022-08-07T10:31:59.596Z,101207.91
2022-08-07T10:34:37.360Z,101212.03
2022-08-07T10:38:00.213Z,101217.50
2022-08-07T10:40:22.387Z,101149.16
2022-08-07T10:43:02.472Z,101205.47
2022-08-07T10:45:44.731Z,101206.28
2022-08-07T10:48:35.807Z,101205.50
2022-08-07T10:51:16.961Z,101205.84
2022-08-07T10:54:02.375Z,101202.22
2022-08-07T10:56:41.273Z,101198.59
2022-08-07T10:59:21.435Z,101191.94
2022-08-07T11:02:04.786Z,101190.03
2022-08-07T11:04:57.414Z,101189.72
2022-08-07T11:07:58.605Z,101179.19
2022-08-07T11:10:29.319Z,101190.22
2022-08-07T11:13:03.448Z,101179.78
2022-08-07T11:15:36.670Z,101170.97
2022-08-07T11:18:12.597Z,101172.19
2022-08-07T11:20:47.274Z,101166.84
2022-08-07T11:23:30.814Z,101151.88
2022-08-07T11:26:14.068Z,101143.03
2022-08-07T11:28:53.486Z,101148.13
2022-08-07T11:31:35.062Z,101139.09
2022-08-07T11:34:10.239Z,101141.34
2022-08-07T11:36:44.594Z,101146.78
2022-08-07T11:39:24.833Z,101162.13
2022-08-07T11:42:16.856Z,101150.63
2022-08-07T11:44:57.515Z,101153.84
2022-08-07T11:47:56.662Z,101137.91
2022-08-07T11:50:57.735Z,101130.28
2022-08-07T11:54:01.187Z,101120.59
2022-08-07T11:56:39.012Z,101109.00
2022-08-07T12:00:10.821Z,101096.50
2022-08-07T12:02:52.735Z,101100.50
2022-08-07T12:05:47.651Z,101104.94
2022-08-07T12:08:25.734Z,101101.28
2022-08-07T12:11:21.177Z,101099.84
2022-08-07T12:13:55.147Z,101099.09
2022-08-07T12:16:30.110Z,101101.66
2022-08-07T12:19:14.796Z,101093.91
2022-08-07T12:22:39.466Z,101092.78
2022-08-07T12:25:10.348Z,101102.47
2022-08-07T12:28:08.471Z,101097.44
2022-08-07T12:30:46.785Z,101100.63
2022-08-07T12:33:23.060Z,101078.19
2022-08-07T12:35:58.429Z,101079.16
2022-08-07T12:38:43.092Z,101083.00
2022-08-07T12:41:16.801Z,101088.88
2022-08-07T12:44:04.150Z,101078.09
2022-08-07T12:46:46.259Z,101067.91
2022-08-07T12:49:25.647Z,101067.97
2022-08-07T12:52:18.102Z,101059.31
2022-08-07T12:54:57.324Z,101059.59
2022-08-07T12:57:39.300Z,101061.31
2022-08-07T13:00:33.013Z,101060.97
2022-08-07T13:04:02.553Z,101056.16
2022-08-07T13:06:37.208Z,101058.88
2022-08-07T13:10:20.078Z,101048.38
2022-08-07T13:12:33.324Z,101045.63
2022-08-07T13:15:15.021Z,101042.66
2022-08-07T13:18:02.200Z,101071.44
2022-08-07T13:20:41.046Z,101077.50
2022-08-07T13:24:03.921Z,101075.56
2022-08-07T13:26:10.551Z,101070.38
2022-08-07T13:28:48.199Z,101066.34
2022-08-07T13:31:21.217Z,101072.13
2022-08-07T13:34:34.442Z,101061.56
2022-08-07T13:36:44.363Z,101057.28
2022-08-07T13:39:28.222Z,101034.03
2022-08-07T13:41:59.015Z,101023.22
2022-08-07T13:44:34.709Z,101029.91
2022-08-07T13:47:09.594Z,101036.63
2022-08-07T13:50:33.238Z,101034.06
2022-08-07T13:52:38.057Z,101022.50
2022-08-07T13:55:25.514Z,101021.09
2022-08-07T13:58:27.846Z,101007.38
2022-08-07T14:01:08.828Z,101003.16
2022-08-07T14:04:07.586Z,101008.53
2022-08-07T14:06:33.349Z,101004.97
2022-08-07T14:09:04.503Z,100993.19
2022-08-07T14:11:53.505Z,100991.28
2022-08-07T14:14:32.970Z,100991.09
2022-08-07T14:17:32.010Z,100986.59
2022-08-07T14:20:40.657Z,100990.75
2022-08-07T14:22:48.109Z,100996.22
2022-08-07T14:25:18.532Z,101005.06
2022-08-07T14:28:21.087Z,100993.22
2022-08-07T14:30:40.692Z,100993.81
2022-08-07T14:33:10.041Z,100991.91
2022-08-07T14:35:45.348Z,100987.09
2022-08-07T14:41:14.677Z,100986.28
2022-08-07T14:46:37.998Z,100970.97
2022-08-07T14:49:57.080Z,100962.16
2022-08-07T14:52:11.885Z,100961.34
2022-08-07T14:54:45.456Z,100958.06
2022-08-07T14:57:19.393Z,100959.53
2022-08-07T15:00:04.805Z,100947.91
2022-08-07T15:02:37.009Z,100978.88
2022-08-07T15:05:20.383Z,100973.53
2022-08-07T15:07:53.396Z,100949.38
2022-08-07T15:10:26.616Z,100943.03
2022-08-07T15:13:22.378Z,100937.13
2022-08-07T15:15:58.387Z,100933.00
2022-08-07T15:21:58.642Z,100944.47
2022-08-07T15:27:11.133Z,100953.16
2022-08-07T15:30:06.419Z,100941.09
2022-08-07T15:32:39.622Z,100953.97
2022-08-07T15:35:15.038Z,100957.72
2022-08-07T15:38:17.903Z,100947.59
2022-08-07T15:40:39.007Z,100947.75
2022-08-07T15:43:53.518Z,100938.44
2022-08-07T15:46:31.638Z,100937.28
2022-08-07T15:52:02.671Z,100938.25
2022-08-07T15:54:39.634Z,100927.69
2022-08-07T15:57:27.904Z,100923.00
2022-08-07T16:00:04.098Z,100927.53
2022-08-07T16:02:39.395Z,100941.19
2022-08-07T16:05:15.341Z,100937.72
2022-08-07T16:08:31.785Z,100925.78
2022-08-07T16:10:38.566Z,100916.66
2022-08-07T16:13:58.324Z,100940.19
2022-08-07T16:16:57.434Z,100907.53
2022-08-07T16:19:42.898Z,100932.84
2022-08-07T16:22:55.782Z,100930.47
2022-08-07T16:25:53.975Z,100922.69
2022-08-07T16:30:06.406Z,100927.69
2022-08-07T16:31:57.188Z,100939.31
2022-08-07T16:34:30.181Z,100928.34
2022-08-07T16:38:02.941Z,100923.41
2022-08-07T16:41:01.737Z,100928.81
2022-08-07T16:44:05.730Z,100912.78
2022-08-07T16:47:04.744Z,100906.63
2022-08-07T16:50:20.672Z,100917.50
2022-08-07T16:54:01.913Z,100936.19
2022-08-07T16:56:37.579Z,100924.75
2022-08-07T16:59:14.740Z,100926.97
2022-08-07T17:02:00.135Z,100928.63
2022-08-07T17:04:50.847Z,100930.59
2022-08-07T17:07:55.413Z,100926.34
2022-08-07T17:10:32.479Z,100925.44
2022-08-07T17:13:38.857Z,100915.44
2022-08-07T17:16:18.229Z,100921.78
2022-08-07T17:19:00.352Z,100923.13
2022-08-07T17:21:51.796Z,100917.72
2022-08-07T17:24:32.235Z,100915.34
2022-08-07T17:27:05.705Z,100911.00
2022-08-07T17:30:14.101Z,100908.91
2022-08-07T17:32:56.890Z,100907.78
2022-08-07T17:35:55.113Z,100908.59
2022-08-07T17:38:33.361Z,100901.91
2022-08-07T17:42:00.573Z,100906.91
2022-08-07T17:44:08.267Z,100895.00
2022-08-07T17:46:52.589Z,100898.09
2022-08-07T17:49:24.628Z,100893.66
2022-08-07T17:52:00.944Z,100893.28
2022-08-07T17:54:40.070Z,100895.94
2022-08-07T17:57:32.033Z,100892.59
2022-08-07T18:00:32.955Z,100896.16
2022-08-07T18:03:18.528Z,100890.16
2022-08-07T18:06:02.293Z,100899.03
2022-08-07T18:08:33.723Z,100888.25
2022-08-07T18:12:06.697Z,100882.47
2022-08-07T18:14:01.935Z,100891.38
2022-08-07T18:16:34.088Z,100887.41
2022-08-07T18:21:09.617Z,100866.41
2022-08-07T18:22:26.152Z,100866.72
2022-08-07T18:25:01.603Z,100872.81
2022-08-07T18:28:36.158Z,100861.41
2022-08-07T18:31:18.483Z,100841.53
2022-08-07T18:34:37.918Z,100761.03
2022-08-07T18:38:59.367Z,100690.31
2022-08-07T18:40:43.057Z,100600.44
2022-08-07T18:43:15.037Z,100464.03
2022-08-07T18:46:24.492Z,100364.06
2022-08-07T18:50:05.894Z,100255.13
2022-08-07T18:52:34.674Z,100124.81
2022-08-07T18:54:43.355Z,99933.72
2022-08-07T18:57:30.499Z,99782.56
2022-08-07T19:00:32.877Z,99678.88
2022-08-07T19:03:03.986Z,99539.28
2022-08-07T19:06:03.590Z,99405.03
2022-08-07T19:08:46.423Z,99256.53
2022-08-07T19:11:36.711Z,99142.47
2022-08-07T19:14:17.337Z,98773.72
2022-08-07T19:17:07.119Z,98621.72
2022-08-07T19:19:51.704Z,98523.47
2022-08-07T19:22:30.588Z,98496.28
2022-08-07T19:25:06.432Z,98482.66
2022-08-07T19:30:55.674Z,98473.16
2022-08-07T19:31:05.414Z,98453.84
2022-08-07T19:33:33.555Z,98455.75
2022-08-07T19:36:04.857Z,98411.41
2022-08-07T19:38:53.325Z,98381.69
2022-08-07T19:41:39.034Z,98258.00
2022-08-07T19:44:21.973Z,98071.22
2022-08-07T19:46:55.860Z,98491.41
2022-08-07T19:49:57.141Z,98678.88
2022-08-07T19:52:18.111Z,99559.47
2022-08-07T19:54:56.268Z,100315.56
2022-08-07T19:58:00.065Z,100570.16
2022-08-07T20:00:27.979Z,101047.84
2022-08-07T20:03:01.086Z,101310.03
2022-08-07T20:05:31.715Z,101333.53
2022-08-07T20:08:23.885Z,101999.97
2022-08-07T20:10:56.224Z,102059.38
2022-08-07T20:13:35.211Z,102023.13
2022-08-07T20:16:09.700Z,101956.19
2022-08-07T20:19:00.274Z,101820.66
2022-08-07T20:21:42.293Z,101745.09
2022-08-07T20:24:17.519Z,101714.53
2022-08-07T20:26:51.931Z,101681.84
2022-08-07T20:29:48.703Z,101649.44
2022-08-07T20:32:23.084Z,101615.56
2022-08-07T20:34:55.178Z,101594.09
2022-08-07T20:37:26.399Z,101569.06
2022-08-07T20:40:03.094Z,101569.16
2022-08-07T20:42:35.349Z,101576.69
2022-08-07T20:45:32.668Z,101553.97
2022-08-07T20:47:58.379Z,101542.44
2022-08-07T20:50:28.925Z,101542.13
2022-08-07T20:53:00.152Z,101538.41
2022-08-07T20:55:28.271Z,101557.44
2022-08-07T20:58:03.689Z,101567.78
2022-08-07T21:00:42.888Z,101562.84
2022-08-07T21:03:16.404Z,101548.59
2022-08-07T21:05:55.865Z,101544.34
2022-08-07T21:08:36.661Z,101520.09
2022-08-07T21:11:10.898Z,101492.47
2022-08-07T21:13:57.400Z,101468.34
2022-08-07T21:16:34.425Z,101479.25
2022-08-07T21:19:10.073Z,101472.19
2022-08-07T21:21:57.274Z,101484.41
2022-08-07T21:24:47.910Z,101484.75
2022-08-07T21:27:25.595Z,101482.78
2022-08-07T21:30:08.443Z,101467.63
2022-08-07T21:32:48.892Z,101456.78
2022-08-07T21:36:03.758Z,101445.72
2022-08-07T21:38:21.522Z,101433.16
2022-08-07T21:41:00.948Z,101409.16
2022-08-07T21:43:55.653Z,101410.81
2022-08-07T21:46:33.022Z,101397.13
2022-08-07T21:49:15.080Z,101396.28
2022-08-07T21:51:58.625Z,101385.50
2022-08-07T21:54:38.941Z,101391.91
2022-08-07T21:57:40.102Z,101388.47
2022-08-07T22:00:22.826Z,101377.56
2022-08-07T22:02:55.939Z,101373.31
2022-08-07T22:05:45.964Z,101357.47
2022-08-07T22:08:19.581Z,101365.84
2022-08-07T22:10:50.601Z,101365.84
2022-08-07T22:13:24.401Z,101354.59
2022-08-07T22:16:41.463Z,101347.41
2022-08-07T22:19:07.469Z,101336.72
2022-08-07T22:22:04.694Z,101329.28
2022-08-07T22:24:35.192Z,101335.50
2022-08-07T22:27:13.331Z,101321.16
2022-08-07T22:29:50.249Z,101318.72
2022-08-07T22:32:25.104Z,101306.16
2022-08-07T22:34:55.963Z,101311.59
2022-08-07T22:38:01.895Z,101296.94
2022-08-07T22:40:26.826Z,101280.16
2022-08-07T22:43:00.140Z,101255.09
2022-08-07T22:46:40.427Z,101246.22
2022-08-07T22:49:02.418Z,101238.00
2022-08-07T22:51:52.076Z,101242.00
2022-08-07T22:54:48.836Z,101246.34
2022-08-07T22:57:41.039Z,101244.75
2022-08-07T23:00:14.396Z,101228.16
2022-08-07T23:02:54.342Z,101210.50
2022-08-07T23:06:08.908Z,101203.91
2022-08-07T23:10:04.562Z,101188.72
2022-08-07T23:12:06.245Z,101185.41
2022-08-07T23:14:48.337Z,101170.44
2022-08-07T23:17:41.686Z,101178.00
2022-08-07T23:20:40.220Z,101169.47
2022-08-07T23:24:04.349Z,101173.00
2022-08-07T23:26:39.750Z,101171.00
2022-08-07T23:29:43.355Z,101164.44
2022-08-07T23:34:23.454Z,101158.88
2022-08-07T23:35:38.656Z,101146.97
2022-08-07T23:38:36.650Z,101142.22
2022-08-07T23:41:24.487Z,101146.00
2022-08-07T23:44:18.600Z,101134.78
2022-08-07T23:47:16.586Z,101132.28
2022-08-07T23:50:11.731Z,101125.94
2022-08-07T23:53:06.210Z,101131.25
2022-08-07T23:55:52.025Z,101128.81
2022-08-07T23:58:26.659Z,101120.41
